Time;durP1;ratioP1;P1;durP2;ratioP2;P2;SDS_P1;SDS_P2;PMS_P1;PMS_P2;Temp;Humidity;BMP_temperature;BMP_pressure;BME280_temperature;BME280_humidity;BME280_pressure;Samples;Min_cycle;Max_cycle;Signal;HPM_P1;HPM_P2
2021/07/21 04:30:55;;;;;;;14.70;9.73;;;13.30;99.90;;;;;;5974262;23;20394;-77
2021/07/21 04:33:22;;;;;;;15.50;10.47;;;13.30;99.90;;;;;;4949642;29;20431;-76
2021/07/21 04:35:48;;;;;;;14.60;9.43;;;13.30;99.90;;;;;;4953861;28;20921;-78
2021/07/21 04:38:16;;;;;;;14.93;9.90;;;13.40;99.90;;;;;;4954213;28;20442;-76
2021/07/21 04:40:44;;;;;;;12.93;9.50;;;13.40;99.90;;;;;;4947758;28;20432;-78
2021/07/21 04:43:10;;;;;;;13.60;9.23;;;13.40;99.90;;;;;;4915588;29;20426;-78
2021/07/21 04:45:41;;;;;;;10.93;8.53;;;13.50;99.90;;;;;;4918270;29;20425;-78
2021/07/21 04:48:06;;;;;;;11.67;8.93;;;13.60;99.90;;;;;;4918658;29;20912;-78
2021/07/21 04:50:32;;;;;;;12.27;9.87;;;13.60;99.90;;;;;;4918888;29;20513;-77
2021/07/21 04:52:58;;;;;;;15.23;8.90;;;13.70;99.90;;;;;;4918912;29;20201;-77
2021/07/21 04:55:23;;;;;;;15.83;10.57;;;13.70;99.90;;;;;;4919231;29;20182;-75
2021/07/21 04:57:49;;;;;;;26.23;17.70;;;13.80;99.90;;;;;;4918851;29;20179;-77
2021/07/21 05:00:16;;;;;;;22.13;16.60;;;13.90;99.90;;;;;;4918545;29;20178;-77
2021/07/21 05:02:41;;;;;;;16.83;11.17;;;13.90;99.90;;;;;;4918783;29;20939;-76
2021/07/21 05:05:08;;;;;;;13.63;9.90;;;14.00;99.90;;;;;;4919828;29;20422;-77
2021/07/21 05:07:33;;;;;;;12.37;9.27;;;14.20;99.90;;;;;;4920055;29;20579;-78
2021/07/21 05:09:59;;;;;;;16.13;9.77;;;14.20;99.90;;;;;;4919563;29;20414;-78
2021/07/21 05:12:24;;;;;;;12.77;9.33;;;14.40;99.90;;;;;;4918464;29;20235;-73
2021/07/21 05:14:50;;;;;;;13.83;9.47;;;14.50;99.90;;;;;;4917565;29;20182;-74
2021/07/21 05:17:16;;;;;;;21.33;10.27;;;14.70;99.90;;;;;;4917487;29;20318;-73
2021/07/21 05:19:41;;;;;;;14.60;10.40;;;15.00;99.90;;;;;;4918129;29;20228;-70
2021/07/21 05:22:07;;;;;;;17.70;9.90;;;15.40;99.90;;;;;;4917923;29;20248;-72
2021/07/21 05:24:32;;;;;;;12.63;10.43;;;15.70;99.90;;;;;;4919180;29;20655;-71
2021/07/21 05:26:58;;;;;;;15.73;10.57;;;16.10;99.90;;;;;;4918693;29;20714;-70
2021/07/21 05:29:23;;;;;;;15.13;9.17;;;16.60;99.90;;;;;;4918694;29;20237;-71
2021/07/21 05:31:49;;;;;;;15.93;10.17;;;17.10;99.90;;;;;;4917074;29;20256;-70
2021/07/21 05:34:14;;;;;;;20.97;9.60;;;17.30;99.90;;;;;;4918213;29;20182;-72
2021/07/21 05:36:40;;;;;;;14.90;8.50;;;17.80;99.90;;;;;;4917659;29;20190;-70
2021/07/21 05:39:07;;;;;;;13.57;10.10;;;18.00;99.90;;;;;;4916524;29;20190;-71
2021/07/21 05:41:33;;;;;;;16.73;10.20;;;18.40;99.90;;;;;;4917839;29;20205;-72
2021/07/21 05:43:59;;;;;;;14.70;10.33;;;18.40;99.90;;;;;;4917758;29;20506;-72
2021/07/21 05:46:24;;;;;;;13.60;10.63;;;18.80;99.90;;;;;;4918248;29;20222;-72
2021/07/21 05:48:50;;;;;;;13.87;9.57;;;18.90;99.90;;;;;;4917859;29;20182;-70
2021/07/21 05:51:16;;;;;;;18.27;9.60;;;19.20;99.90;;;;;;4916921;29;20205;-72
2021/07/21 05:53:41;;;;;;;11.67;9.90;;;19.40;99.90;;;;;;4915904;29;20201;-73
2021/07/21 05:56:12;;;;;;;13.50;7.73;;;19.50;99.90;;;;;;4917312;29;20186;-73
2021/07/21 05:58:37;;;;;;;14.60;9.30;;;19.80;99.90;;;;;;4917909;29;20552;-71
2021/07/21 06:01:03;;;;;;;17.97;10.00;;;19.90;99.90;;;;;;4917547;29;20449;-74
2021/07/21 06:03:28;;;;;;;11.80;8.80;;;20.00;99.90;;;;;;4917113;29;20174;-73
2021/07/21 06:05:54;;;;;;;11.87;9.50;;;20.10;99.90;;;;;;4917284;29;20190;-73
2021/07/21 06:08:19;;;;;;;13.47;9.90;;;20.30;99.90;;;;;;4917255;29;20174;-71
2021/07/21 06:10:45;;;;;;;16.43;9.83;;;20.40;99.90;;;;;;4915599;29;20291;-74
2021/07/21 06:13:12;;;;;;;17.00;9.57;;;20.40;99.90;;;;;;4916893;29;20269;-73
2021/07/21 06:15:38;;;;;;;13.17;9.90;;;20.60;99.90;;;;;;4916992;29;20595;-70
2021/07/21 06:18:04;;;;;;;13.23;9.17;;;20.80;99.90;;;;;;4916643;29;20491;-74
2021/07/21 06:20:30;;;;;;;16.60;9.90;;;21.00;99.90;;;;;;4916735;29;20426;-74
2021/07/21 06:22:55;;;;;;;14.07;9.30;;;21.10;99.90;;;;;;4916684;29;20178;-72
2021/07/21 06:25:21;;;;;;;14.57;9.13;;;21.10;99.90;;;;;;4916535;29;20189;-72
2021/07/21 06:27:48;;;;;;;14.57;11.07;;;21.30;99.90;;;;;;4916425;29;20201;-70
2021/07/21 06:30:16;;;;;;;12.13;9.70;;;21.40;99.90;;;;;;4916292;29;20542;-71
2021/07/21 06:32:42;;;;;;;11.50;8.50;;;21.40;99.90;;;;;;4916915;29;20457;-81
2021/07/21 06:35:08;;;;;;;14.30;9.60;;;21.40;99.90;;;;;;4919659;29;20422;-77
2021/07/21 06:37:35;;;;;;;20.63;9.83;;;21.30;99.90;;;;;;4920289;29;20449;-79
2021/07/21 06:40:01;;;;;;;21.33;10.93;;;21.60;99.90;;;;;;4919577;29;20550;-77
2021/07/21 06:42:26;;;;;;;15.27;9.97;;;21.90;99.90;;;;;;4918068;29;20497;-79
2021/07/21 06:44:53;;;;;;;15.33;9.33;;;22.20;99.90;;;;;;4917265;29;20189;-80
2021/07/21 06:47:20;;;;;;;12.20;8.83;;;22.50;99.90;;;;;;4919603;29;20232;-78
2021/07/21 06:49:50;;;;;;;16.80;10.20;;;22.80;99.90;;;;;;4918542;29;20943;-79
2021/07/21 06:52:17;;;;;;;11.90;9.40;;;23.10;99.90;;;;;;4919212;29;20444;-81
2021/07/21 06:54:43;;;;;;;13.00;9.20;;;23.40;99.90;;;;;;4918592;29;20414;-78
2021/07/21 06:57:09;;;;;;;11.50;9.10;;;23.50;99.90;;;;;;4918352;29;20414;-79
2021/07/21 06:59:36;;;;;;;14.13;9.53;;;23.70;99.90;;;;;;4918571;29;20506;-80
2021/07/21 07:02:03;;;;;;;10.10;8.73;;;23.80;99.90;;;;;;4918660;29;20437;-78
2021/07/21 07:04:28;;;;;;;14.83;10.67;;;24.10;99.90;;;;;;4918459;29;20426;-80
2021/07/21 07:06:55;;;;;;;13.03;8.43;;;24.20;99.90;;;;;;4919999;29;20457;-79
2021/07/21 07:09:20;;;;;;;13.40;9.70;;;24.20;99.90;;;;;;4918227;29;20179;-80
2021/07/21 07:11:46;;;;;;;17.83;9.40;;;24.50;99.90;;;;;;4918638;29;20453;-80
2021/07/21 07:14:12;;;;;;;14.37;8.77;;;24.20;99.90;;;;;;4918867;29;20177;-80
2021/07/21 07:16:37;;;;;;;11.10;9.90;;;24.50;99.90;;;;;;4917298;29;20269;-77
2021/07/21 07:19:03;;;;;;;14.23;8.30;;;24.50;99.90;;;;;;4919675;29;20185;-82
2021/07/21 07:21:29;;;;;;;15.07;9.97;;;24.60;99.90;;;;;;4918067;29;20288;-79
2021/07/21 07:23:57;;;;;;;11.57;9.10;;;25.00;99.90;;;;;;4915987;29;20198;-77
2021/07/21 07:26:23;;;;;;;12.53;8.60;;;25.10;99.90;;;;;;4915836;29;20469;-79
2021/07/21 07:28:50;;;;;;;9.73;8.73;;;25.50;99.90;;;;;;4918165;29;20426;-78
2021/07/21 07:31:15;;;;;;;9.40;8.50;;;25.20;99.90;;;;;;4917074;29;20466;-80
2021/07/21 07:33:41;;;;;;;10.77;8.67;;;25.20;99.90;;;;;;4918049;29;20414;-79
2021/07/21 07:36:07;;;;;;;12.00;9.07;;;25.50;99.90;;;;;;4917257;29;20234;-78
2021/07/21 07:38:32;;;;;;;12.57;8.73;;;25.80;99.90;;;;;;4917854;29;20174;-82
2021/07/21 07:40:58;;;;;;;16.97;9.17;;;26.00;99.90;;;;;;4917582;29;20668;-80
2021/07/21 07:43:23;;;;;;;9.53;8.27;;;26.00;99.90;;;;;;4918237;29;20219;-80
2021/07/21 07:45:49;;;;;;;9.33;8.33;;;26.00;99.90;;;;;;4917892;29;20178;-80
2021/07/21 07:48:15;;;;;;;12.47;8.80;;;26.10;99.90;;;;;;4918272;29;20715;-80
2021/07/21 07:50:41;;;;;;;11.93;10.07;;;26.30;99.90;;;;;;4917205;29;20245;-78
2021/07/21 07:53:06;;;;;;;10.93;8.53;;;26.50;99.90;;;;;;4916376;29;20185;-78
2021/07/21 07:55:36;;;;;;;11.00;9.00;;;26.60;99.90;;;;;;4916104;29;20170;-80
2021/07/21 07:58:02;;;;;;;13.60;8.80;;;26.60;99.90;;;;;;4914796;29;20277;-79
2021/07/21 08:00:28;;;;;;;12.37;9.00;;;26.80;99.90;;;;;;4916112;29;20414;-79
2021/07/21 08:02:53;;;;;;;8.60;7.73;;;27.00;99.90;;;;;;4914763;29;20915;-78
2021/07/21 08:05:19;;;;;;;14.00;9.67;;;27.00;99.90;;;;;;4914246;29;20185;-78
2021/07/21 08:07:44;;;;;;;9.30;7.90;;;26.70;99.90;;;;;;4915986;29;20201;-79
2021/07/21 08:10:13;;;;;;;14.10;8.20;;;26.60;99.90;;;;;;4914787;29;20216;-79
2021/07/21 08:12:39;;;;;;;12.03;7.33;;;27.00;99.90;;;;;;4916378;29;20190;-79
2021/07/21 08:15:05;;;;;;;9.93;7.80;;;27.30;99.90;;;;;;4913871;29;20422;-78
2021/07/21 08:17:31;;;;;;;10.53;8.10;;;27.30;99.90;;;;;;4915806;29;20473;-80
2021/07/21 08:19:56;;;;;;;13.60;8.90;;;27.60;99.90;;;;;;4916569;29;20477;-79
2021/07/21 08:22:22;;;;;;;11.10;8.23;;;27.40;99.90;;;;;;4919138;29;20206;-78
2021/07/21 08:24:47;;;;;;;9.97;8.30;;;27.50;99.90;;;;;;4918655;29;20178;-78
2021/07/21 08:27:13;;;;;;;9.97;8.30;;;27.70;99.90;;;;;;4916774;29;20210;-79
2021/07/21 08:29:38;;;;;;;10.33;7.50;;;28.10;99.90;;;;;;4919374;29;20326;-77
2021/07/21 08:32:05;;;;;;;10.50;7.90;;;27.90;99.90;;;;;;4926088;29;20225;-77
2021/07/21 08:34:30;;;;;;;14.20;8.77;;;28.10;99.90;;;;;;4937464;29;20484;-77
2021/07/21 08:36:56;;;;;;;11.73;8.40;;;28.10;99.90;;;;;;4937040;29;20460;-79
2021/07/21 08:39:21;;;;;;;10.50;9.40;;;28.30;99.90;;;;;;4937356;29;20278;-78
2021/07/21 08:41:48;;;;;;;10.83;8.50;;;28.40;99.90;;;;;;4937854;29;20241;-79
2021/07/21 08:44:17;;;;;;;11.17;8.40;;;28.00;99.90;;;;;;4936651;29;20276;-77
2021/07/21 08:46:44;;;;;;;15.63;9.00;;;27.90;99.90;;;;;;4937017;29;20464;-79
2021/07/21 08:49:10;;;;;;;12.63;7.90;;;27.80;99.90;;;;;;4937497;29;20445;-77
2021/07/21 08:51:36;;;;;;;12.33;8.73;;;28.10;99.90;;;;;;4936346;29;20453;-78
2021/07/21 08:54:03;;;;;;;12.43;8.60;;;28.00;99.90;;;;;;4938943;29;20417;-79
2021/07/21 08:56:28;;;;;;;10.97;8.43;;;28.00;99.90;;;;;;4940200;29;20440;-78
2021/07/21 08:58:55;;;;;;;11.63;9.13;;;28.60;99.90;;;;;;4936114;29;20425;-76
2021/07/21 09:01:21;;;;;;;8.37;7.37;;;28.50;99.90;;;;;;4936964;29;20213;-77
2021/07/21 09:03:48;;;;;;;11.30;7.97;;;28.70;99.90;;;;;;4935633;29;20480;-78
2021/07/21 09:06:14;;;;;;;12.50;7.83;;;28.60;99.90;;;;;;4935823;29;20801;-78
2021/07/21 09:08:41;;;;;;;13.43;9.03;;;28.80;99.90;;;;;;4936944;29;20427;-78
2021/07/21 09:11:07;;;;;;;13.43;8.50;;;28.60;99.90;;;;;;4937654;29;20197;-78
2021/07/21 09:13:36;;;;;;;13.10;8.50;;;28.70;99.90;;;;;;4936807;29;20432;-79
2021/07/21 09:16:04;;;;;;;12.27;9.33;;;28.80;99.90;;;;;;4937715;29;20264;-77
2021/07/21 09:18:31;;;;;;;12.80;7.90;;;28.40;99.90;;;;;;4936474;29;20513;-78
2021/07/21 09:20:57;;;;;;;12.60;7.70;;;28.20;99.90;;;;;;4936837;29;20822;-79
2021/07/21 09:23:35;;;;;;;11.03;8.93;;;28.50;99.90;;;;;;4937131;29;20426;-78
2021/07/21 09:26:01;;;;;;;17.90;8.95;;;29.00;99.90;;;;;;4936010;29;20193;-78
2021/07/21 09:28:38;;;;;;;14.80;8.57;;;29.60;99.90;;;;;;4937357;29;20466;-79
2021/07/21 09:31:06;;;;;;;9.40;8.20;;;30.20;99.90;;;;;;4936406;29;20220;-79
2021/07/21 09:33:31;;;;;;;12.30;8.00;;;30.70;99.90;;;;;;4938191;29;20429;-80
2021/07/21 09:35:57;;;;;;;11.37;8.30;;;31.00;99.90;;;;;;4937404;29;20427;-79
2021/07/21 09:38:25;;;;;;;12.47;8.33;;;31.20;99.90;;;;;;4936897;29;20264;-78
2021/07/21 09:40:57;;;;;;;12.63;7.67;;;31.10;99.90;;;;;;4939209;29;20204;-78
2021/07/21 09:43:27;;;;;;;8.53;6.97;;;30.90;99.90;;;;;;4937788;29;20425;-77
2021/07/21 09:45:52;;;;;;;12.83;8.53;;;31.20;99.90;;;;;;4938292;29;20472;-79
2021/07/21 09:48:33;;;;;;;10.83;8.10;;;31.50;99.90;;;;;;4938167;29;20469;-80
2021/07/21 09:50:59;;;;;;;16.87;8.20;;;31.70;99.90;;;;;;4938845;29;20232;-79
2021/07/21 09:53:46;;;;;;;9.07;8.20;;;31.60;99.90;;;;;;4936776;29;20468;-77
2021/07/21 09:56:12;;;;;;;9.20;8.30;;;32.30;99.90;;;;;;4936891;29;20178;-78
2021/07/21 09:58:39;;;;;;;8.40;6.70;;;32.20;99.90;;;;;;4936306;29;20413;-76
2021/07/21 10:01:05;;;;;;;11.53;7.63;;;32.20;99.90;;;;;;4935474;29;20456;-78
2021/07/21 10:03:35;;;;;;;10.60;9.20;;;32.20;99.90;;;;;;4936338;29;20927;-80
2021/07/21 10:06:05;;;;;;;8.33;7.43;;;32.00;99.90;;;;;;4938091;29;20433;-76
2021/07/21 10:08:48;;;;;;;10.83;7.57;;;32.20;99.90;;;;;;4941097;29;20481;-78
2021/07/21 10:11:22;;;;;;;11.93;7.23;;;32.30;99.90;;;;;;4936544;29;21207;-76
2021/07/21 10:13:49;;;;;;;8.47;7.77;;;32.50;99.90;;;;;;4937858;29;20444;-78
2021/07/21 10:16:42;;;;;;;11.67;7.20;;;32.50;99.90;;;;;;4936299;29;20500;-78
2021/07/21 10:19:15;;;;;;;9.87;7.53;;;32.40;99.90;;;;;;4936392;29;20468;-78
2021/07/21 10:21:44;;;;;;;8.40;7.50;;;32.40;99.90;;;;;;4935698;29;20944;-78
2021/07/21 10:24:10;;;;;;;13.23;8.50;;;32.60;99.90;;;;;;4937325;29;20416;-78
2021/07/21 10:26:37;;;;;;;8.50;7.67;;;32.20;98.90;;;;;;4937010;29;20465;-78
2021/07/21 10:29:03;;;;;;;8.77;7.87;;;31.90;99.90;;;;;;4935724;29;20418;-78
2021/07/21 10:31:30;;;;;;;9.10;8.13;;;32.20;99.90;;;;;;4935409;29;20545;-80
2021/07/21 10:33:56;;;;;;;9.03;7.30;;;32.20;99.50;;;;;;4935598;29;20417;-78
2021/07/21 10:36:21;;;;;;;10.20;9.17;;;32.10;99.90;;;;;;4935586;29;20424;-77
2021/07/21 10:38:48;;;;;;;10.70;8.83;;;32.30;99.90;;;;;;4935274;29;20432;-80
2021/07/21 10:41:15;;;;;;;11.83;8.40;;;31.90;99.90;;;;;;4934306;29;20252;-78
2021/07/21 10:43:49;;;;;;;14.70;8.60;;;32.10;99.00;;;;;;4934200;29;20451;-77
2021/07/21 10:46:37;;;;;;;11.43;7.33;;;32.00;99.80;;;;;;4935080;29;20412;-78
2021/07/21 10:49:41;;;;;;;10.33;7.77;;;31.60;99.20;;;;;;4936192;29;20938;-78
2021/07/21 10:54:56;;;;;;;9.30;8.40;;;32.10;99.90;;;;;;4935649;29;20413;-80
2021/07/21 11:00:11;;;;;;;9.60;7.43;;;32.60;97.30;;;;;;4936460;29;20468;-79
2021/07/21 11:02:37;;;;;;;10.03;9.03;;;32.40;99.00;;;;;;4935987;29;20433;-78
2021/07/21 11:05:05;;;;;;;8.93;8.03;;;32.20;99.40;;;;;;4935992;29;20420;-78
2021/07/21 11:07:51;;;;;;;10.43;8.50;;;31.80;98.90;;;;;;4935811;29;20743;-77
2021/07/21 11:10:42;;;;;;;11.23;9.07;;;31.50;98.50;;;;;;4935357;29;21002;-80
2021/07/21 11:13:33;;;;;;;10.10;9.10;;;31.40;99.20;;;;;;4934686;29;20428;-74
2021/07/21 11:16:03;;;;;;;10.53;7.80;;;31.20;99.30;;;;;;4932552;29;20504;-76
2021/07/21 11:18:31;;;;;;;9.87;8.87;;;31.10;99.30;;;;;;4934708;29;20416;-75
2021/07/21 11:21:10;;;;;;;9.50;8.30;;;31.00;99.90;;;;;;4933084;29;20468;-76
2021/07/21 11:23:41;;;;;;;15.27;8.50;;;31.30;99.90;;;;;;4934608;29;20460;-78
2021/07/21 11:26:34;;;;;;;10.20;8.67;;;31.30;99.90;;;;;;4934389;29;20444;-76
2021/07/21 11:29:24;;;;;;;9.37;8.20;;;30.90;99.90;;;;;;4934273;29;20413;-75
2021/07/21 11:31:50;;;;;;;11.37;9.60;;;30.20;99.90;;;;;;4934169;29;21414;-74
2021/07/21 11:34:31;;;;;;;11.33;9.60;;;29.50;99.90;;;;;;4934145;29;20417;-75
2021/07/21 11:37:28;;;;;;;9.50;8.60;;;29.40;99.90;;;;;;4934215;29;20529;-75
2021/07/21 11:39:58;;;;;;;17.33;8.73;;;29.20;99.90;;;;;;4934113;29;20877;-77
2021/07/21 11:42:24;;;;;;;13.33;9.37;;;29.50;99.90;;;;;;4932422;29;20441;-76
2021/07/21 11:45:13;;;;;;;8.90;7.90;;;29.60;99.90;;;;;;4933673;29;20448;-76
2021/07/21 11:47:43;;;;;;;11.10;9.60;;;29.70;99.90;;;;;;4930511;29;20464;-76
2021/07/21 11:50:17;;;;;;;10.37;8.80;;;29.80;99.90;;;;;;4930103;29;20468;-77
2021/07/21 11:52:45;;;;;;;14.37;10.93;;;29.80;99.90;;;;;;4929080;29;20887;-77
2021/07/21 11:55:12;;;;;;;13.70;9.60;;;29.80;99.90;;;;;;4926458;29;20441;-77
2021/07/21 11:57:38;;;;;;;12.40;9.77;;;29.40;99.90;;;;;;4931131;29;20429;-79
2021/07/21 12:00:05;;;;;;;12.60;9.00;;;28.90;99.90;;;;;;4933381;29;20429;-79
2021/07/21 12:02:30;;;;;;;11.43;9.13;;;28.50;99.90;;;;;;4936092;29;20961;-79
2021/07/21 12:04:58;;;;;;;12.27;9.77;;;28.30;99.90;;;;;;4937477;29;20489;-79
2021/07/21 12:07:32;;;;;;;11.40;9.00;;;27.90;99.90;;;;;;4935835;29;20332;-79
2021/07/21 12:09:58;;;;;;;15.80;9.60;;;27.70;99.90;;;;;;4931829;29;20515;-78
2021/07/21 12:12:25;;;;;;;11.63;9.80;;;27.50;99.90;;;;;;4933675;29;20465;-78
2021/07/21 12:14:56;;;;;;;12.83;9.33;;;27.40;99.90;;;;;;4930120;29;20304;-76
2021/07/21 12:17:26;;;;;;;9.43;8.53;;;27.70;99.90;;;;;;4929632;29;20432;-77
2021/07/21 12:20:10;;;;;;;8.93;8.03;;;28.00;99.90;;;;;;4931766;29;20869;-78
2021/07/21 12:22:38;;;;;;;12.10;10.23;;;28.20;99.90;;;;;;4934580;29;20480;-78
2021/07/21 12:25:08;;;;;;;13.90;9.30;;;28.10;99.90;;;;;;4934078;29;20610;-77
2021/07/21 12:27:45;;;;;;;13.60;8.23;;;27.80;99.90;;;;;;4934075;29;20962;-78
2021/07/21 12:30:17;;;;;;;12.10;9.93;;;27.50;99.90;;;;;;4933008;29;20420;-81
2021/07/21 12:32:45;;;;;;;11.70;9.43;;;27.50;99.90;;;;;;4931131;29;20937;-76
2021/07/21 12:35:12;;;;;;;15.03;9.30;;;27.80;99.90;;;;;;4927543;28;20822;-78
2021/07/21 12:37:42;;;;;;;10.00;9.00;;;27.90;99.90;;;;;;4934400;29;20459;-76
2021/07/21 12:40:20;;;;;;;13.83;9.93;;;28.10;99.90;;;;;;4933993;29;20800;-78
2021/07/21 12:42:47;;;;;;;15.37;10.33;;;28.10;99.90;;;;;;4935374;29;20425;-79
2021/07/21 12:45:15;;;;;;;10.30;8.87;;;28.10;99.90;;;;;;4935628;29;20448;-78
2021/07/21 12:47:44;;;;;;;12.53;9.37;;;28.20;99.90;;;;;;4936361;29;20457;-77
2021/07/21 12:50:11;;;;;;;11.73;8.93;;;28.10;99.90;;;;;;4936364;29;20420;-78
2021/07/21 12:52:58;;;;;;;13.97;10.13;;;28.30;99.90;;;;;;4937266;29;20512;-75
2021/07/21 12:55:50;;;;;;;9.63;8.63;;;28.20;99.90;;;;;;4935100;29;20456;-76
2021/07/21 12:58:22;;;;;;;11.07;9.13;;;28.10;99.90;;;;;;4931416;29;20453;-77
2021/07/21 13:00:49;;;;;;;14.20;9.30;;;28.20;99.90;;;;;;4934700;29;20441;-75
2021/07/21 13:03:17;;;;;;;10.33;9.10;;;28.20;99.90;;;;;;4935416;29;20513;-76
2021/07/21 13:05:50;;;;;;;11.03;9.40;;;28.10;99.90;;;;;;4937039;29;20785;-77
2021/07/21 13:08:26;;;;;;;13.80;8.50;;;28.20;99.90;;;;;;4939128;29;20515;-76
2021/07/21 13:11:11;;;;;;;14.80;9.20;;;27.90;99.90;;;;;;4939766;29;20436;-76
2021/07/21 13:13:39;;;;;;;14.40;8.53;;;27.90;99.90;;;;;;4940566;29;20439;-77
2021/07/21 13:16:06;;;;;;;9.67;8.67;;;27.90;99.90;;;;;;4942281;29;20526;-76
2021/07/21 13:18:33;;;;;;;11.70;8.60;;;28.00;99.90;;;;;;4937837;29;20438;-79
2021/07/21 13:20:59;;;;;;;10.67;8.47;;;28.00;99.90;;;;;;4938089;29;20525;-78
2021/07/21 13:23:26;;;;;;;11.80;8.63;;;27.80;99.90;;;;;;4938972;29;20468;-79
2021/07/21 13:26:05;;;;;;;13.17;9.23;;;27.60;99.90;;;;;;4940295;29;20745;-77
2021/07/21 13:28:32;;;;;;;10.67;9.07;;;27.60;99.90;;;;;;4939707;29;20464;-79
2021/07/21 13:31:10;;;;;;;13.77;9.00;;;27.70;99.90;;;;;;4936495;29;20528;-76
2021/07/21 13:33:36;;;;;;;10.33;9.07;;;27.70;99.90;;;;;;4935777;29;20548;-76
2021/07/21 13:36:06;;;;;;;13.30;9.40;;;27.60;99.90;;;;;;4935882;29;20452;-75
2021/07/21 13:38:32;;;;;;;14.30;9.10;;;27.20;99.90;;;;;;4936231;29;20424;-76
2021/07/21 13:40:59;;;;;;;11.40;8.90;;;27.00;99.90;;;;;;4937837;29;20433;-78
2021/07/21 13:43:26;;;;;;;10.70;8.20;;;27.10;99.90;;;;;;4938554;29;20432;-79
2021/07/21 13:45:52;;;;;;;16.80;9.57;;;27.10;99.90;;;;;;4939163;29;20421;-78
2021/07/21 13:48:26;;;;;;;10.43;9.37;;;27.10;99.90;;;;;;4938292;29;20492;-77
2021/07/21 13:51:09;;;;;;;12.40;9.10;;;27.00;99.90;;;;;;4937566;29;20566;-78
2021/07/21 13:53:34;;;;;;;14.50;8.27;;;27.00;99.90;;;;;;4938210;29;20496;-78
2021/07/21 13:56:00;;;;;;;11.80;8.87;;;26.90;99.90;;;;;;4940353;29;20421;-79
2021/07/21 13:58:25;;;;;;;10.97;8.80;;;26.90;99.90;;;;;;4931466;29;20197;-76
2021/07/21 14:00:51;;;;;;;10.17;9.17;;;27.00;99.90;;;;;;4931615;29;20208;-76
2021/07/21 14:03:21;;;;;;;11.37;9.53;;;27.00;99.90;;;;;;4932876;29;20185;-77
2021/07/21 14:05:47;;;;;;;14.90;8.77;;;27.00;99.90;;;;;;4932985;29;20204;-74
2021/07/21 14:08:12;;;;;;;9.30;8.30;;;26.70;99.90;;;;;;4930866;29;20473;-77
2021/07/21 14:10:38;;;;;;;12.37;9.00;;;26.50;99.90;;;;;;4933107;29;20722;-75
2021/07/21 14:13:03;;;;;;;11.83;8.60;;;26.40;99.90;;;;;;4934450;29;20197;-75
2021/07/21 14:15:29;;;;;;;10.73;7.73;;;26.20;99.90;;;;;;4933363;29;20194;-76
2021/07/21 14:17:54;;;;;;;14.73;9.03;;;26.20;99.90;;;;;;4933493;29;20209;-76
2021/07/21 14:20:20;;;;;;;10.70;9.63;;;26.20;99.90;;;;;;4932793;29;20181;-78
2021/07/21 14:22:45;;;;;;;9.60;8.60;;;26.20;99.90;;;;;;4931389;29;20206;-75
2021/07/21 14:25:12;;;;;;;10.90;8.80;;;26.30;99.90;;;;;;4932011;29;20265;-74
2021/07/21 14:27:38;;;;;;;12.63;9.63;;;26.30;99.90;;;;;;4930266;29;20209;-62
2021/07/21 14:30:08;;;;;;;11.00;8.80;;;26.30;99.90;;;;;;4926542;29;20433;-65
2021/07/21 14:32:34;;;;;;;12.47;8.47;;;26.40;99.90;;;;;;4928587;29;20221;-62
2021/07/21 14:34:59;;;;;;;11.10;9.00;;;26.40;99.90;;;;;;4931476;29;20460;-64
2021/07/21 14:37:25;;;;;;;15.20;8.83;;;26.40;99.90;;;;;;4928375;29;20201;-64
2021/07/21 14:39:50;;;;;;;10.27;7.77;;;26.20;99.90;;;;;;4931823;29;20186;-64
2021/07/21 14:42:16;;;;;;;10.63;8.60;;;26.20;99.90;;;;;;4930829;29;20205;-64
2021/07/21 14:44:42;;;;;;;8.53;6.80;;;26.20;99.90;;;;;;4930012;29;20801;-64
2021/07/21 14:47:08;;;;;;;14.33;7.20;;;26.20;99.90;;;;;;4928458;29;20272;-64
2021/07/21 14:49:34;;;;;;;12.30;8.50;;;26.20;99.90;;;;;;4928520;29;20449;-63
2021/07/21 14:52:00;;;;;;;10.27;8.13;;;26.20;99.90;;;;;;4929893;29;20496;-64
2021/07/21 14:54:26;;;;;;;16.60;7.70;;;26.20;99.90;;;;;;4931013;29;20235;-62
2021/07/21 14:56:52;;;;;;;12.47;7.80;;;26.30;99.90;;;;;;4931693;29;20177;-63
2021/07/21 14:59:19;;;;;;;9.67;8.67;;;26.30;99.90;;;;;;4931359;29;20998;-61
2021/07/21 15:01:44;;;;;;;11.13;7.90;;;26.20;99.90;;;;;;4931906;29;20575;-63
2021/07/21 15:04:10;;;;;;;9.10;8.03;;;26.10;99.90;;;;;;4931400;29;20429;-62
2021/07/21 15:06:37;;;;;;;9.10;8.20;;;26.10;99.90;;;;;;4930958;29;20200;-65
2021/07/21 15:09:08;;;;;;;7.27;6.47;;;26.10;99.90;;;;;;4930807;29;20182;-61
2021/07/21 15:11:39;;;;;;;10.27;8.13;;;26.10;99.90;;;;;;4931559;29;20448;-62
2021/07/21 15:14:05;;;;;;;8.47;6.60;;;26.10;99.90;;;;;;4931117;29;20499;-62
2021/07/21 15:16:31;;;;;;;9.10;8.20;;;26.10;99.90;;;;;;4931228;29;20424;-63
2021/07/21 15:18:57;;;;;;;8.20;6.93;;;26.10;99.90;;;;;;4930476;29;20421;-62
2021/07/21 15:21:22;;;;;;;11.03;7.00;;;26.10;99.90;;;;;;4931842;29;20210;-62
2021/07/21 15:23:48;;;;;;;12.40;7.40;;;26.00;99.90;;;;;;4930938;29;20930;-63
2021/07/21 15:26:13;;;;;;;8.40;7.20;;;26.00;99.90;;;;;;4930635;29;20288;-62
2021/07/21 15:28:39;;;;;;;11.23;7.00;;;26.00;99.90;;;;;;4931947;29;20209;-63
2021/07/21 15:31:05;;;;;;;9.47;6.70;;;26.10;99.90;;;;;;4929635;29;20652;-63
2021/07/21 15:33:31;;;;;;;8.17;7.33;;;26.10;99.90;;;;;;4930136;29;20222;-63
2021/07/21 15:35:58;;;;;;;7.13;5.70;;;26.00;99.90;;;;;;4931932;29;20181;-64
2021/07/21 15:38:26;;;;;;;7.93;7.20;;;26.00;99.90;;;;;;4931199;29;20504;-64
2021/07/21 15:40:52;;;;;;;7.70;6.77;;;25.90;99.90;;;;;;4927330;29;20476;-62
2021/07/21 15:43:18;;;;;;;8.70;6.33;;;25.90;99.90;;;;;;4932619;29;20436;-63
2021/07/21 15:45:44;;;;;;;10.77;7.50;;;25.80;99.90;;;;;;4934945;29;20527;-61
2021/07/21 15:48:09;;;;;;;7.93;7.00;;;25.80;99.90;;;;;;4932748;29;20469;-62
2021/07/21 15:50:35;;;;;;;7.97;7.00;;;25.70;99.90;;;;;;4930741;29;20220;-63
2021/07/21 15:53:01;;;;;;;12.33;7.30;;;25.70;99.90;;;;;;4929767;29;20181;-63
2021/07/21 15:55:26;;;;;;;7.50;6.80;;;25.60;99.90;;;;;;4928489;29;20738;-62
2021/07/21 15:57:52;;;;;;;9.57;6.47;;;25.60;99.90;;;;;;4929910;29;20189;-62
2021/07/21 16:00:20;;;;;;;11.20;6.80;;;25.50;99.90;;;;;;4930637;29;20192;-62
2021/07/21 16:02:45;;;;;;;11.60;6.43;;;25.50;99.90;;;;;;4930893;29;20284;-63
2021/07/21 16:05:17;;;;;;;8.03;7.07;;;25.40;99.90;;;;;;4930237;29;20504;-64
2021/07/21 16:07:42;;;;;;;12.07;6.45;;;25.40;99.90;;;;;;4930329;29;20588;-63
2021/07/21 16:10:13;;;;;;;7.10;6.30;;;25.40;99.90;;;;;;4911736;29;20281;-61
2021/07/21 16:12:39;;;;;;;15.43;7.40;;;25.40;99.90;;;;;;4926345;29;20283;-62
2021/07/21 16:15:13;;;;;;;11.57;6.67;;;25.40;99.90;;;;;;4928379;29;20421;-62
2021/07/21 16:17:40;;;;;;;9.40;6.60;;;25.30;99.90;;;;;;4928549;29;20177;-76
2021/07/21 16:20:07;;;;;;;12.67;6.37;;;25.20;99.90;;;;;;4926125;29;20421;-75
2021/07/21 16:22:32;;;;;;;8.70;6.60;;;25.20;99.90;;;;;;4929565;29;20449;-73
2021/07/21 16:24:59;;;;;;;9.30;6.70;;;25.30;99.90;;;;;;4930766;29;20432;-72
2021/07/21 16:27:26;;;;;;;10.13;6.10;;;25.20;99.90;;;;;;4930842;29;20209;-74
2021/07/21 16:29:51;;;;;;;8.50;5.70;;;25.20;99.90;;;;;;4930695;29;20467;-74
2021/07/21 16:32:16;;;;;;;8.60;6.93;;;25.10;99.90;;;;;;4929279;29;20461;-73
2021/07/21 16:34:42;;;;;;;8.37;7.40;;;25.10;99.90;;;;;;4928873;29;20667;-75
2021/07/21 16:37:07;;;;;;;12.03;7.73;;;25.10;99.90;;;;;;4929139;29;20314;-74
2021/07/21 16:39:34;;;;;;;12.97;5.97;;;25.10;99.90;;;;;;4930311;29;20690;-75
2021/07/21 16:41:59;;;;;;;8.80;5.53;;;25.10;99.90;;;;;;4914762;29;20201;-74
2021/07/21 16:44:25;;;;;;;11.53;6.57;;;25.00;99.90;;;;;;4931542;29;21026;-76
2021/07/21 16:46:50;;;;;;;11.10;8.70;;;25.00;99.90;;;;;;4931912;29;20219;-76
2021/07/21 16:49:16;;;;;;;8.63;6.87;;;24.90;99.90;;;;;;4934459;29;20185;-73
2021/07/21 16:51:42;;;;;;;7.20;6.37;;;24.90;99.90;;;;;;4934711;29;20202;-73
2021/07/21 16:54:07;;;;;;;8.83;6.60;;;24.80;99.90;;;;;;4934209;29;20617;-72
2021/07/21 16:56:33;;;;;;;11.63;8.57;;;24.80;99.90;;;;;;4934100;29;20185;-73
2021/07/21 16:58:58;;;;;;;8.53;6.93;;;24.80;99.90;;;;;;4933331;29;20213;-72
2021/07/21 17:01:25;;;;;;;7.43;6.63;;;24.80;99.90;;;;;;4933036;29;20288;-75
2021/07/21 17:03:51;;;;;;;11.37;10.20;;;24.70;99.90;;;;;;4933201;29;20297;-73
2021/07/21 17:06:16;;;;;;;8.30;6.10;;;24.70;99.90;;;;;;4934393;29;21081;-73
2021/07/21 17:08:42;;;;;;;10.67;5.77;;;24.70;99.90;;;;;;4933113;29;20237;-77
2021/07/21 17:11:08;;;;;;;7.30;5.67;;;24.70;99.90;;;;;;4933952;29;20695;-77
2021/07/21 17:13:34;;;;;;;7.73;6.00;;;24.60;99.90;;;;;;4934421;29;20417;-77
2021/07/21 17:15:59;;;;;;;12.20;6.57;;;24.50;99.90;;;;;;4934447;29;20193;-74
2021/07/21 17:18:25;;;;;;;8.27;5.60;;;24.50;99.90;;;;;;4934156;29;20235;-74